sensor_id;sensor_type;location;lat;lon;timestamp;temperature;humidity
9699;DHT22;10089;47.876;8.346;2024-01-15T00:02:18;-1.60;1.00
9699;DHT22;10089;47.876;8.346;2024-01-15T00:04:43;-1.60;1.00
9699;DHT22;10089;47.876;8.346;2024-01-15T00:07:09;-1.60;99.90
9699;DHT22;10089;47.876;8.346;2024-01-15T00:09:35;-1.70;1.00
9699;DHT22;10089;47.876;8.346;2024-01-15T00:12:01;-1.70;99.90
9699;DHT22;10089;47.876;8.346;2024-01-15T00:14:27;-1.80;1.00
9699;DHT22;10089;47.876;8.346;2024-01-15T00:16:54;-1.90;99.90
9699;DHT22;10089;47.876;8.346;2024-01-15T00:19:23;-2.10;1.00
9699;DHT22;10089;47.876;8.346;2024-01-15T00:21:49;-2.20;1.00
9699;DHT22;10089;47.876;8.346;2024-01-15T00:24:15;-2.30;98.30
9699;DHT22;10089;47.876;8.346;2024-01-15T00:26:41;-2.40;99.90
9699;DHT22;10089;47.876;8.346;2024-01-15T00:29:07;-2.50;99.90
9699;DHT22;10089;47.876;8.346;2024-01-15T00:31:33;-2.60;99.90
9699;DHT22;10089;47.876;8.346;2024-01-15T00:33:59;-2.70;99.90
9699;DHT22;10089;47.876;8.346;2024-01-15T00:36:24;-2.80;99.90
9699;DHT22;10089;47.876;8.346;2024-01-15T00:38:50;-2.80;99.90
9699;DHT22;10089;47.876;8.346;2024-01-15T00:41:16;-2.90;99.90
9699;DHT22;10089;47.876;8.346;2024-01-15T00:43:44;-2.90;99.90
9699;DHT22;10089;47.876;8.346;2024-01-15T00:46:09;-3.00;99.90
9699;DHT22;10089;47.876;8.346;2024-01-15T00:48:35;-3.10;99.90
9699;DHT22;10089;47.876;8.346;2024-01-15T00:51:00;-3.20;99.90
9699;DHT22;10089;47.876;8.346;2024-01-15T00:53:26;-3.20;99.90
9699;DHT22;10089;47.876;8.346;2024-01-15T00:55:52;-3.20;99.90
9699;DHT22;10089;47.876;8.346;2024-01-15T00:58:18;-3.30;99.90
9699;DHT22;10089;47.876;8.346;2024-01-15T01:00:43;-3.30;99.90
9699;DHT22;10089;47.876;8.346;2024-01-15T01:03:09;-3.40;1.00
9699;DHT22;10089;47.876;8.346;2024-01-15T01:05:35;-3.40;1.00
9699;DHT22;10089;47.876;8.346;2024-01-15T01:08:01;-3.40;1.00
9699;DHT22;10089;47.876;8.346;2024-01-15T01:10:27;-3.40;1.00
9699;DHT22;10089;47.876;8.346;2024-01-15T01:12:53;-3.40;1.00
9699;DHT22;10089;47.876;8.346;2024-01-15T01:15:18;-3.40;1.00
9699;DHT22;10089;47.876;8.346;2024-01-15T01:17:44;-3.40;99.90
9699;DHT22;10089;47.876;8.346;2024-01-15T01:20:10;-3.50;99.90
9699;DHT22;10089;47.876;8.346;2024-01-15T01:23:08;-3.50;99.90
9699;DHT22;10089;47.876;8.346;2024-01-15T01:26:59;-3.50;99.90
9699;DHT22;10089;47.876;8.346;2024-01-15T01:38:45;-3.60;99.90
9699;DHT22;10089;47.876;8.346;2024-01-15T01:42:58;-3.60;99.90
9699;DHT22;10089;47.876;8.346;2024-01-15T01:58:46;-3.20;99.90
9699;DHT22;10089;47.876;8.346;2024-01-15T02:02:48;-3.10;78.80
9699;DHT22;10089;47.876;8.346;2024-01-15T02:10:26;-2.90;1.00
9699;DHT22;10089;47.876;8.346;2024-01-15T02:14:31;-3.00;1.00
9699;DHT22;10089;47.876;8.346;2024-01-15T02:19:00;-3.00;1.00
9699;DHT22;10089;47.876;8.346;2024-01-15T02:22:36;-3.10;1.00
9699;DHT22;10089;47.876;8.346;2024-01-15T02:26:45;-3.10;1.00
9699;DHT22;10089;47.876;8.346;2024-01-15T02:30:20;-3.20;1.00
9699;DHT22;10089;47.876;8.346;2024-01-15T02:33:46;-3.20;1.00
9699;DHT22;10089;47.876;8.346;2024-01-15T02:37:31;-3.20;1.00
9699;DHT22;10089;47.876;8.346;2024-01-15T02:41:17;-3.30;1.00
9699;DHT22;10089;47.876;8.346;2024-01-15T02:45:34;-3.30;1.00
9699;DHT22;10089;47.876;8.346;2024-01-15T02:49:20;-3.30;1.00
9699;DHT22;10089;47.876;8.346;2024-01-15T02:53:21;-3.40;87.10
9699;DHT22;10089;47.876;8.346;2024-01-15T02:55:54;-3.30;27.20
9699;DHT22;10089;47.876;8.346;2024-01-15T02:59:41;-3.30;48.50
9699;DHT22;10089;47.876;8.346;2024-01-15T03:03:04;-3.30;88.00
9699;DHT22;10089;47.876;8.346;2024-01-15T03:07:03;-3.20;99.90
9699;DHT22;10089;47.876;8.346;2024-01-15T03:10:43;-3.20;44.70
9699;DHT22;10089;47.876;8.346;2024-01-15T03:14:45;-3.20;99.90
9699;DHT22;10089;47.876;8.346;2024-01-15T03:18:49;-3.20;99.90
9699;DHT22;10089;47.876;8.346;2024-01-15T03:22:12;-3.20;99.90
9699;DHT22;10089;47.876;8.346;2024-01-15T03:25:12;-3.20;99.90
9699;DHT22;10089;47.876;8.346;2024-01-15T03:28:25;-3.20;99.90
9699;DHT22;10089;47.876;8.346;2024-01-15T03:32:21;-3.00;99.90
9699;DHT22;10089;47.876;8.346;2024-01-15T03:35:47;-3.00;99.90
9699;DHT22;10089;47.876;8.346;2024-01-15T03:39:13;-2.90;99.90
9699;DHT22;10089;47.876;8.346;2024-01-15T03:45:50;-2.80;95.60
9699;DHT22;10089;47.876;8.346;2024-01-15T03:49:45;-2.70;1.00
9699;DHT22;10089;47.876;8.346;2024-01-15T03:52:39;-2.60;1.00
9699;DHT22;10089;47.876;8.346;2024-01-15T03:55:52;-2.60;1.00
9699;DHT22;10089;47.876;8.346;2024-01-15T03:59:22;-2.60;1.00
9699;DHT22;10089;47.876;8.346;2024-01-15T04:02:17;-2.50;1.00
9699;DHT22;10089;47.876;8.346;2024-01-15T04:05:11;-2.50;1.00
9699;DHT22;10089;47.876;8.346;2024-01-15T04:08:09;-2.40;1.00
9699;DHT22;10089;47.876;8.346;2024-01-15T04:11:05;-2.40;1.00
9699;DHT22;10089;47.876;8.346;2024-01-15T04:13:43;-2.40;1.00
9699;DHT22;10089;47.876;8.346;2024-01-15T04:17:07;-2.40;99.90
9699;DHT22;10089;47.876;8.346;2024-01-15T04:19:54;-2.30;99.90
9699;DHT22;10089;47.876;8.346;2024-01-15T04:22:25;-2.40;1.00
9699;DHT22;10089;47.876;8.346;2024-01-15T04:25:18;-2.40;1.00
9699;DHT22;10089;47.876;8.346;2024-01-15T04:28:23;-2.30;1.00
9699;DHT22;10089;47.876;8.346;2024-01-15T04:32:11;-2.30;99.90
9699;DHT22;10089;47.876;8.346;2024-01-15T04:35:38;-2.30;1.00
9699;DHT22;10089;47.876;8.346;2024-01-15T04:38:56;-2.30;1.00
9699;DHT22;10089;47.876;8.346;2024-01-15T04:42:23;-2.30;99.90
9699;DHT22;10089;47.876;8.346;2024-01-15T04:46:05;-2.30;99.90
9699;DHT22;10089;47.876;8.346;2024-01-15T04:49:13;-2.30;99.90
9699;DHT22;10089;47.876;8.346;2024-01-15T04:52:40;-2.20;99.90
9699;DHT22;10089;47.876;8.346;2024-01-15T04:55:58;-2.30;99.90
9699;DHT22;10089;47.876;8.346;2024-01-15T05:00:19;-2.30;99.90
9699;DHT22;10089;47.876;8.346;2024-01-15T05:04:12;-2.30;1.00
9699;DHT22;10089;47.876;8.346;2024-01-15T05:07:30;-2.30;1.00
9699;DHT22;10089;47.876;8.346;2024-01-15T05:11:04;-2.30;1.00
9699;DHT22;10089;47.876;8.346;2024-01-15T05:14:35;-2.40;1.00
9699;DHT22;10089;47.876;8.346;2024-01-15T05:18:31;-2.40;1.00
9699;DHT22;10089;47.876;8.346;2024-01-15T05:21:48;-2.30;1.00
9699;DHT22;10089;47.876;8.346;2024-01-15T05:25:14;-2.40;1.00
9699;DHT22;10089;47.876;8.346;2024-01-15T05:28:29;-2.30;1.00
9699;DHT22;10089;47.876;8.346;2024-01-15T05:31:02;-2.40;1.00
9699;DHT22;10089;47.876;8.346;2024-01-15T05:33:34;-1.80;1.00
9699;DHT22;10089;47.876;8.346;2024-01-15T05:36:24;-2.30;1.00
9699;DHT22;10089;47.876;8.346;2024-01-15T05:39:30;-2.40;1.00
9699;DHT22;10089;47.876;8.346;2024-01-15T05:42:32;-2.40;52.10
9699;DHT22;10089;47.876;8.346;2024-01-15T05:46:10;-2.40;99.90
9699;DHT22;10089;47.876;8.346;2024-01-15T05:48:54;-2.40;99.90
9699;DHT22;10089;47.876;8.346;2024-01-15T05:52:35;-2.40;99.90
9699;DHT22;10089;47.876;8.346;2024-01-15T05:55:53;-2.30;99.90
9699;DHT22;10089;47.876;8.346;2024-01-15T05:59:35;-2.40;99.90
9699;DHT22;10089;47.876;8.346;2024-01-15T06:02:29;-2.40;99.90
9699;DHT22;10089;47.876;8.346;2024-01-15T06:05:44;-2.50;1.00
9699;DHT22;10089;47.876;8.346;2024-01-15T06:09:32;-2.50;1.00
9699;DHT22;10089;47.876;8.346;2024-01-15T06:16:23;-2.70;1.00
9699;DHT22;10089;47.876;8.346;2024-01-15T06:20:16;-2.80;1.00
9699;DHT22;10089;47.876;8.346;2024-01-15T06:23:44;-2.80;1.00
9699;DHT22;10089;47.876;8.346;2024-01-15T06:27:00;-2.80;1.00
9699;DHT22;10089;47.876;8.346;2024-01-15T06:29:27;-2.90;1.00
9699;DHT22;10089;47.876;8.346;2024-01-15T06:31:53;-2.90;1.00
9699;DHT22;10089;47.876;8.346;2024-01-15T06:34:19;-2.90;1.00
9699;DHT22;10089;47.876;8.346;2024-01-15T06:36:45;-2.90;1.00
9699;DHT22;10089;47.876;8.346;2024-01-15T06:39:12;-2.90;1.00
9699;DHT22;10089;47.876;8.346;2024-01-15T06:41:38;-2.90;1.00
9699;DHT22;10089;47.876;8.346;2024-01-15T06:44:11;-2.90;1.00
9699;DHT22;10089;47.876;8.346;2024-01-15T06:46:41;-2.90;1.00
9699;DHT22;10089;47.876;8.346;2024-01-15T06:49:12;-2.90;1.00
9699;DHT22;10089;47.876;8.346;2024-01-15T06:51:43;-2.90;1.00
9699;DHT22;10089;47.876;8.346;2024-01-15T06:54:09;-2.90;1.00
9699;DHT22;10089;47.876;8.346;2024-01-15T06:56:35;-2.90;1.00
9699;DHT22;10089;47.876;8.346;2024-01-15T06:59:00;-2.90;2.00
9699;DHT22;10089;47.876;8.346;2024-01-15T07:01:26;-2.80;1.00
9699;DHT22;10089;47.876;8.346;2024-01-15T07:03:52;-2.90;1.00
9699;DHT22;10089;47.876;8.346;2024-01-15T07:06:17;-2.90;1.00
9699;DHT22;10089;47.876;8.346;2024-01-15T07:08:43;-2.80;1.00
9699;DHT22;10089;47.876;8.346;2024-01-15T07:11:09;-2.80;2.70
9699;DHT22;10089;47.876;8.346;2024-01-15T07:13:36;-2.90;7.10
9699;DHT22;10089;47.876;8.346;2024-01-15T07:16:02;-2.90;8.40
9699;DHT22;10089;47.876;8.346;2024-01-15T07:18:28;-2.90;30.00
9699;DHT22;10089;47.876;8.346;2024-01-15T07:20:53;-2.90;29.90
9699;DHT22;10089;47.876;8.346;2024-01-15T07:23:19;-2.90;13.80
9699;DHT22;10089;47.876;8.346;2024-01-15T07:25:45;-2.90;1.00
9699;DHT22;10089;47.876;8.346;2024-01-15T07:28:10;-2.90;1.00
9699;DHT22;10089;47.876;8.346;2024-01-15T07:30:36;-2.90;1.20
9699;DHT22;10089;47.876;8.346;2024-01-15T07:33:04;-2.80;1.00
9699;DHT22;10089;47.876;8.346;2024-01-15T07:35:30;-2.90;1.00
9699;DHT22;10089;47.876;8.346;2024-01-15T07:37:56;-2.90;1.00
9699;DHT22;10089;47.876;8.346;2024-01-15T07:40:22;-2.80;1.00
9699;DHT22;10089;47.876;8.346;2024-01-15T07:42:48;-2.90;1.00
9699;DHT22;10089;47.876;8.346;2024-01-15T07:45:14;-2.90;1.00
9699;DHT22;10089;47.876;8.346;2024-01-15T07:47:39;-2.90;11.60
9699;DHT22;10089;47.876;8.346;2024-01-15T07:50:05;-2.90;21.60
9699;DHT22;10089;47.876;8.346;2024-01-15T07:52:31;-2.90;14.80
9699;DHT22;10089;47.876;8.346;2024-01-15T07:54:57;-2.80;25.20
9699;DHT22;10089;47.876;8.346;2024-01-15T07:57:24;-2.80;24.40
9699;DHT22;10089;47.876;8.346;2024-01-15T07:59:50;-2.80;17.20
9699;DHT22;10089;47.876;8.346;2024-01-15T08:02:17;-2.80;1.00
9699;DHT22;10089;47.876;8.346;2024-01-15T08:04:42;-2.80;1.00
9699;DHT22;10089;47.876;8.346;2024-01-15T08:07:08;-2.80;1.00
9699;DHT22;10089;47.876;8.346;2024-01-15T08:09:34;-2.70;1.00
9699;DHT22;10089;47.876;8.346;2024-01-15T08:11:59;-2.70;1.00
9699;DHT22;10089;47.876;8.346;2024-01-15T08:14:26;-2.70;1.00
9699;DHT22;10089;47.876;8.346;2024-01-15T08:16:51;-2.70;1.00
9699;DHT22;10089;47.876;8.346;2024-01-15T08:19:17;-2.70;1.00
9699;DHT22;10089;47.876;8.346;2024-01-15T08:21:47;-2.70;1.00
9699;DHT22;10089;47.876;8.346;2024-01-15T08:24:14;-2.70;1.00
9699;DHT22;10089;47.876;8.346;2024-01-15T08:26:40;-2.60;1.00
9699;DHT22;10089;47.876;8.346;2024-01-15T08:29:06;-2.50;1.00
9699;DHT22;10089;47.876;8.346;2024-01-15T08:31:31;-2.50;99.90
9699;DHT22;10089;47.876;8.346;2024-01-15T08:33:57;-2.40;99.90
9699;DHT22;10089;47.876;8.346;2024-01-15T08:36:24;-2.40;99.90
9699;DHT22;10089;47.876;8.346;2024-01-15T08:38:50;-2.30;1.00
9699;DHT22;10089;47.876;8.346;2024-01-15T08:41:15;-2.30;1.00
9699;DHT22;10089;47.876;8.346;2024-01-15T08:43:41;-2.20;99.90
9699;DHT22;10089;47.876;8.346;2024-01-15T08:46:07;-2.20;34.50
9699;DHT22;10089;47.876;8.346;2024-01-15T08:48:33;-2.10;1.00
9699;DHT22;10089;47.876;8.346;2024-01-15T08:50:58;-2.10;1.00
9699;DHT22;10089;47.876;8.346;2024-01-15T08:53:24;-2.10;1.00
9699;DHT22;10089;47.876;8.346;2024-01-15T08:55:49;-2.10;99.90
9699;DHT22;10089;47.876;8.346;2024-01-15T08:58:15;-2.00;99.90
9699;DHT22;10089;47.876;8.346;2024-01-15T09:00:41;-1.80;1.00
9699;DHT22;10089;47.876;8.346;2024-01-15T09:03:08;-1.90;1.00
9699;DHT22;10089;47.876;8.346;2024-01-15T09:05:34;-1.90;1.00
9699;DHT22;10089;47.876;8.346;2024-01-15T09:08:55;-1.90;1.00
9699;DHT22;10089;47.876;8.346;2024-01-15T09:53:50;-1.50;1.00
9699;DHT22;10089;47.876;8.346;2024-01-15T10:00:23;-1.40;99.90
9699;DHT22;10089;47.876;8.346;2024-01-15T10:23:20;1.00;99.90
9699;DHT22;10089;47.876;8.346;2024-01-15T10:27:28;1.20;99.90
9699;DHT22;10089;47.876;8.346;2024-01-15T10:38:53;0.10;1.00
9699;DHT22;10089;47.876;8.346;2024-01-15T10:42:50;0.80;99.90
9699;DHT22;10089;47.876;8.346;2024-01-15T10:45:52;0.90;1.00
9699;DHT22;10089;47.876;8.346;2024-01-15T10:52:24;0.50;1.00
9699;DHT22;10089;47.876;8.346;2024-01-15T10:55:14;0.40;1.00
9699;DHT22;10089;47.876;8.346;2024-01-15T10:58:22;0.30;99.90
9699;DHT22;10089;47.876;8.346;2024-01-15T11:01:54;0.20;1.00
9699;DHT22;10089;47.876;8.346;2024-01-15T11:04:42;0.00;1.00
9699;DHT22;10089;47.876;8.346;2024-01-15T11:07:45;-0.10;99.90
9699;DHT22;10089;47.876;8.346;2024-01-15T11:10:41;-0.20;1.00
9699;DHT22;10089;47.876;8.346;2024-01-15T11:13:23;-0.10;99.90
9699;DHT22;10089;47.876;8.346;2024-01-15T11:16:02;-0.10;1.00
9699;DHT22;10089;47.876;8.346;2024-01-15T11:19:14;-0.30;1.00
9699;DHT22;10089;47.876;8.346;2024-01-15T11:21:21;-0.30;1.00
9699;DHT22;10089;47.876;8.346;2024-01-15T11:23:49;-0.50;1.00
9699;DHT22;10089;47.876;8.346;2024-01-15T11:28:56;-0.60;99.90
9699;DHT22;10089;47.876;8.346;2024-01-15T11:34:07;-0.50;1.00
9699;DHT22;10089;47.876;8.346;2024-01-15T11:41:57;-0.40;1.00
9699;DHT22;10089;47.876;8.346;2024-01-15T11:44:23;-0.40;1.00
9699;DHT22;10089;47.876;8.346;2024-01-15T11:47:02;-0.40;20.80
9699;DHT22;10089;47.876;8.346;2024-01-15T11:50:00;-0.40;99.90
9699;DHT22;10089;47.876;8.346;2024-01-15T11:52:26;-0.40;59.70
9699;DHT22;10089;47.876;8.346;2024-01-15T11:57:46;-0.60;99.90
9699;DHT22;10089;47.876;8.346;2024-01-15T12:00:12;-0.60;1.00
9699;DHT22;10089;47.876;8.346;2024-01-15T12:02:43;-0.60;1.00
9699;DHT22;10089;47.876;8.346;2024-01-15T12:05:13;-0.60;1.00
9699;DHT22;10089;47.876;8.346;2024-01-15T12:07:42;-0.60;1.00
9699;DHT22;10089;47.876;8.346;2024-01-15T12:10:09;-0.60;99.90
9699;DHT22;10089;47.876;8.346;2024-01-15T12:15:28;-0.60;1.00
9699;DHT22;10089;47.876;8.346;2024-01-15T12:17:58;-0.50;1.00
9699;DHT22;10089;47.876;8.346;2024-01-15T12:20:25;-0.60;1.00
9699;DHT22;10089;47.876;8.346;2024-01-15T12:22:50;-0.50;1.00
9699;DHT22;10089;47.876;8.346;2024-01-15T12:25:16;-0.40;15.80
9699;DHT22;10089;47.876;8.346;2024-01-15T12:27:42;-0.60;99.90
9699;DHT22;10089;47.876;8.346;2024-01-15T12:30:13;-0.60;1.00
9699;DHT22;10089;47.876;8.346;2024-01-15T12:32:40;-0.60;87.90
9699;DHT22;10089;47.876;8.346;2024-01-15T12:35:06;-0.60;1.00
9699;DHT22;10089;47.876;8.346;2024-01-15T12:37:32;-0.60;1.00
9699;DHT22;10089;47.876;8.346;2024-01-15T12:39:59;-0.60;99.90
9699;DHT22;10089;47.876;8.346;2024-01-15T12:42:25;-0.60;23.40
9699;DHT22;10089;47.876;8.346;2024-01-15T12:44:50;-0.60;99.90
9699;DHT22;10089;47.876;8.346;2024-01-15T12:47:16;-0.60;99.90
9699;DHT22;10089;47.876;8.346;2024-01-15T12:49:47;-0.60;99.90
9699;DHT22;10089;47.876;8.346;2024-01-15T12:52:15;-0.60;1.00
9699;DHT22;10089;47.876;8.346;2024-01-15T12:54:40;-0.70;1.00
9699;DHT22;10089;47.876;8.346;2024-01-15T12:57:06;-0.60;1.00
9699;DHT22;10089;47.876;8.346;2024-01-15T12:59:31;-0.50;99.90
9699;DHT22;10089;47.876;8.346;2024-01-15T13:01:57;-0.40;68.10
9699;DHT22;10089;47.876;8.346;2024-01-15T13:04:24;-0.40;99.90
9699;DHT22;10089;47.876;8.346;2024-01-15T13:06:53;-0.30;1.00
9699;DHT22;10089;47.876;8.346;2024-01-15T13:09:18;-0.20;99.90
9699;DHT22;10089;47.876;8.346;2024-01-15T13:11:47;-0.10;99.90
9699;DHT22;10089;47.876;8.346;2024-01-15T13:14:13;-0.10;99.90
9699;DHT22;10089;47.876;8.346;2024-01-15T13:16:40;-0.20;1.00
9699;DHT22;10089;47.876;8.346;2024-01-15T13:19:07;-0.20;1.00
9699;DHT22;10089;47.876;8.346;2024-01-15T13:21:33;-0.20;1.00
9699;DHT22;10089;47.876;8.346;2024-01-15T13:23:59;-0.20;1.00
9699;DHT22;10089;47.876;8.346;2024-01-15T13:26:25;-0.30;99.90
9699;DHT22;10089;47.876;8.346;2024-01-15T13:28:51;-0.30;99.90
9699;DHT22;10089;47.876;8.346;2024-01-15T13:31:16;-0.40;99.90
9699;DHT22;10089;47.876;8.346;2024-01-15T13:33:42;-0.50;99.90
9699;DHT22;10089;47.876;8.346;2024-01-15T13:36:08;-0.50;99.90
9699;DHT22;10089;47.876;8.346;2024-01-15T13:38:36;-0.40;1.00
9699;DHT22;10089;47.876;8.346;2024-01-15T13:41:04;-0.50;99.90
9699;DHT22;10089;47.876;8.346;2024-01-15T13:43:31;-0.60;1.00
9699;DHT22;10089;47.876;8.346;2024-01-15T13:45:56;-0.60;1.00
9699;DHT22;10089;47.876;8.346;2024-01-15T13:48:22;-0.60;1.00
9699;DHT22;10089;47.876;8.346;2024-01-15T13:50:48;-0.70;99.90
9699;DHT22;10089;47.876;8.346;2024-01-15T13:53:15;-0.60;1.00
9699;DHT22;10089;47.876;8.346;2024-01-15T13:55:41;-0.70;1.00
9699;DHT22;10089;47.876;8.346;2024-01-15T13:58:06;-0.70;1.00
9699;DHT22;10089;47.876;8.346;2024-01-15T14:00:32;-0.80;99.90
9699;DHT22;10089;47.876;8.346;2024-01-15T14:02:58;-0.90;1.00
9699;DHT22;10089;47.876;8.346;2024-01-15T14:05:24;-0.90;99.90
9699;DHT22;10089;47.876;8.346;2024-01-15T14:07:50;-0.90;1.00
9699;DHT22;10089;47.876;8.346;2024-01-15T14:10:15;-1.00;1.00
9699;DHT22;10089;47.876;8.346;2024-01-15T14:12:41;-1.10;1.00
9699;DHT22;10089;47.876;8.346;2024-01-15T14:15:07;-1.10;1.00
9699;DHT22;10089;47.876;8.346;2024-01-15T14:17:33;-1.10;99.90
9699;DHT22;10089;47.876;8.346;2024-01-15T14:19:59;-1.20;99.90
9699;DHT22;10089;47.876;8.346;2024-01-15T14:22:24;-1.20;1.00
9699;DHT22;10089;47.876;8.346;2024-01-15T14:24:51;-1.20;99.90
9699;DHT22;10089;47.876;8.346;2024-01-15T14:27:18;-1.20;1.00
9699;DHT22;10089;47.876;8.346;2024-01-15T14:29:43;-1.20;99.90
9699;DHT22;10089;47.876;8.346;2024-01-15T14:32:09;-1.30;1.00
9699;DHT22;10089;47.876;8.346;2024-01-15T14:34:34;-1.30;1.00
9699;DHT22;10089;47.876;8.346;2024-01-15T14:37:02;-1.30;1.00
9699;DHT22;10089;47.876;8.346;2024-01-15T14:39:28;-1.30;99.90
9699;DHT22;10089;47.876;8.346;2024-01-15T14:41:53;-1.50;1.00
9699;DHT22;10089;47.876;8.346;2024-01-15T14:44:19;-1.40;28.80
9699;DHT22;10089;47.876;8.346;2024-01-15T14:46:46;-1.40;1.00
9699;DHT22;10089;47.876;8.346;2024-01-15T14:49:13;-1.40;1.00
9699;DHT22;10089;47.876;8.346;2024-01-15T14:51:40;-1.40;1.00
9699;DHT22;10089;47.876;8.346;2024-01-15T14:54:05;-1.50;99.90
9699;DHT22;10089;47.876;8.346;2024-01-15T14:56:52;-1.40;1.00
9699;DHT22;10089;47.876;8.346;2024-01-15T14:59:28;-1.50;1.00
9699;DHT22;10089;47.876;8.346;2024-01-15T15:02:03;-1.50;1.00
9699;DHT22;10089;47.876;8.346;2024-01-15T15:04:31;-1.50;99.90
9699;DHT22;10089;47.876;8.346;2024-01-15T15:06:57;-1.60;99.90
9699;DHT22;10089;47.876;8.346;2024-01-15T15:09:32;-1.70;1.00
9699;DHT22;10089;47.876;8.346;2024-01-15T15:11:57;-1.70;1.00
9699;DHT22;10089;47.876;8.346;2024-01-15T15:14:27;-1.70;1.00
9699;DHT22;10089;47.876;8.346;2024-01-15T15:17:00;-1.70;1.00
9699;DHT22;10089;47.876;8.346;2024-01-15T15:19:27;-1.70;1.00
9699;DHT22;10089;47.876;8.346;2024-01-15T15:21:52;-1.70;99.90
9699;DHT22;10089;47.876;8.346;2024-01-15T15:24:18;-1.70;99.90
9699;DHT22;10089;47.876;8.346;2024-01-15T15:26:44;-1.60;99.90
9699;DHT22;10089;47.876;8.346;2024-01-15T15:29:09;-1.60;99.90
9699;DHT22;10089;47.876;8.346;2024-01-15T15:31:35;-1.60;99.90
9699;DHT22;10089;47.876;8.346;2024-01-15T15:34:00;-1.60;99.90
9699;DHT22;10089;47.876;8.346;2024-01-15T15:36:26;-1.70;99.90
9699;DHT22;10089;47.876;8.346;2024-01-15T15:38:52;-1.60;35.00
9699;DHT22;10089;47.876;8.346;2024-01-15T15:41:17;-1.60;99.90
9699;DHT22;10089;47.876;8.346;2024-01-15T15:43:43;-1.60;1.00
9699;DHT22;10089;47.876;8.346;2024-01-15T15:46:08;-1.60;1.00
9699;DHT22;10089;47.876;8.346;2024-01-15T15:48:34;-1.70;1.00
9699;DHT22;10089;47.876;8.346;2024-01-15T15:50:59;-1.70;69.60
9699;DHT22;10089;47.876;8.346;2024-01-15T15:53:25;-1.70;1.00
9699;DHT22;10089;47.876;8.346;2024-01-15T15:55:51;-1.70;1.00
9699;DHT22;10089;47.876;8.346;2024-01-15T15:58:17;-1.80;1.00
9699;DHT22;10089;47.876;8.346;2024-01-15T16:00:43;-1.80;1.00
9699;DHT22;10089;47.876;8.346;2024-01-15T16:03:08;-1.80;1.00
9699;DHT22;10089;47.876;8.346;2024-01-15T16:05:34;-1.90;1.00
9699;DHT22;10089;47.876;8.346;2024-01-15T16:08:00;-1.90;99.90
9699;DHT22;10089;47.876;8.346;2024-01-15T16:10:26;-2.00;1.00
9699;DHT22;10089;47.876;8.346;2024-01-15T16:12:51;-2.00;1.00
9699;DHT22;10089;47.876;8.346;2024-01-15T16:15:21;-1.90;1.00
9699;DHT22;10089;47.876;8.346;2024-01-15T16:17:51;-2.00;1.00
9699;DHT22;10089;47.876;8.346;2024-01-15T16:20:17;-2.00;99.90
9699;DHT22;10089;47.876;8.346;2024-01-15T16:22:44;-2.00;99.90
9699;DHT22;10089;47.876;8.346;2024-01-15T16:25:09;-2.00;1.00
9699;DHT22;10089;47.876;8.346;2024-01-15T16:27:35;-2.00;1.00
9699;DHT22;10089;47.876;8.346;2024-01-15T16:30:03;-2.10;99.90
9699;DHT22;10089;47.876;8.346;2024-01-15T16:32:28;-2.10;1.00
9699;DHT22;10089;47.876;8.346;2024-01-15T16:34:54;-2.10;93.40
9699;DHT22;10089;47.876;8.346;2024-01-15T16:37:19;-2.10;1.00
9699;DHT22;10089;47.876;8.346;2024-01-15T16:39:45;-2.20;1.00
9699;DHT22;10089;47.876;8.346;2024-01-15T16:42:11;-2.20;1.00
9699;DHT22;10089;47.876;8.346;2024-01-15T16:44:37;-2.20;98.90
9699;DHT22;10089;47.876;8.346;2024-01-15T16:47:03;-2.10;80.40
9699;DHT22;10089;47.876;8.346;2024-01-15T16:49:30;-2.10;92.10
9699;DHT22;10089;47.876;8.346;2024-01-15T16:51:56;-2.10;99.90
9699;DHT22;10089;47.876;8.346;2024-01-15T16:54:30;-2.10;99.90
9699;DHT22;10089;47.876;8.346;2024-01-15T16:56:57;-2.00;99.90
9699;DHT22;10089;47.876;8.346;2024-01-15T16:59:26;-2.10;1.00
9699;DHT22;10089;47.876;8.346;2024-01-15T17:01:58;-2.10;1.00
9699;DHT22;10089;47.876;8.346;2024-01-15T17:05:28;-2.00;1.00
9699;DHT22;10089;47.876;8.346;2024-01-15T17:07:53;-2.00;99.90
9699;DHT22;10089;47.876;8.346;2024-01-15T17:10:19;-2.10;1.00
9699;DHT22;10089;47.876;8.346;2024-01-15T17:12:44;-2.10;99.90
9699;DHT22;10089;47.876;8.346;2024-01-15T17:15:10;-2.10;1.00
9699;DHT22;10089;47.876;8.346;2024-01-15T17:17:36;-2.20;99.90
9699;DHT22;10089;47.876;8.346;2024-01-15T17:20:03;-2.20;99.90
9699;DHT22;10089;47.876;8.346;2024-01-15T17:22:28;-2.30;99.90
9699;DHT22;10089;47.876;8.346;2024-01-15T17:24:55;-2.30;1.00
9699;DHT22;10089;47.876;8.346;2024-01-15T17:27:22;-2.40;99.90
9699;DHT22;10089;47.876;8.346;2024-01-15T17:29:48;-2.40;99.90
9699;DHT22;10089;47.876;8.346;2024-01-15T17:32:13;-2.50;1.00
9699;DHT22;10089;47.876;8.346;2024-01-15T17:34:39;-2.50;1.00
9699;DHT22;10089;47.876;8.346;2024-01-15T17:37:04;-2.50;99.90
9699;DHT22;10089;47.876;8.346;2024-01-15T17:39:31;-2.50;99.90
9699;DHT22;10089;47.876;8.346;2024-01-15T17:41:57;-2.50;1.00
9699;DHT22;10089;47.876;8.346;2024-01-15T17:44:23;-2.50;99.90
9699;DHT22;10089;47.876;8.346;2024-01-15T17:46:50;-2.40;99.90
9699;DHT22;10089;47.876;8.346;2024-01-15T17:49:16;-2.40;1.00
9699;DHT22;10089;47.876;8.346;2024-01-15T17:51:41;-2.40;99.90
9699;DHT22;10089;47.876;8.346;2024-01-15T17:54:07;-2.30;99.90
9699;DHT22;10089;47.876;8.346;2024-01-15T17:56:35;-2.30;1.00
9699;DHT22;10089;47.876;8.346;2024-01-15T17:59:01;-2.30;1.00
9699;DHT22;10089;47.876;8.346;2024-01-15T18:01:26;-1.00;1.00
9699;DHT22;10089;47.876;8.346;2024-01-15T18:03:54;-2.30;99.90
9699;DHT22;10089;47.876;8.346;2024-01-15T18:06:21;-2.40;1.00
9699;DHT22;10089;47.876;8.346;2024-01-15T18:08:47;-2.40;99.90
9699;DHT22;10089;47.876;8.346;2024-01-15T18:11:16;-2.40;99.90
9699;DHT22;10089;47.876;8.346;2024-01-15T18:13:46;-2.50;99.90
9699;DHT22;10089;47.876;8.346;2024-01-15T18:16:13;-2.50;99.90
9699;DHT22;10089;47.876;8.346;2024-01-15T18:18:55;-2.50;1.00
9699;DHT22;10089;47.876;8.346;2024-01-15T18:21:22;-2.50;99.90
9699;DHT22;10089;47.876;8.346;2024-01-15T18:23:49;-2.50;1.00
9699;DHT22;10089;47.876;8.346;2024-01-15T18:26:28;-2.50;51.10
9699;DHT22;10089;47.876;8.346;2024-01-15T18:29:07;-2.40;99.90
9699;DHT22;10089;47.876;8.346;2024-01-15T18:32:41;-2.50;1.00
9699;DHT22;10089;47.876;8.346;2024-01-15T18:35:53;-2.50;1.00
9699;DHT22;10089;47.876;8.346;2024-01-15T18:38:59;-2.50;1.00
9699;DHT22;10089;47.876;8.346;2024-01-15T18:41:50;-2.60;1.00
9699;DHT22;10089;47.876;8.346;2024-01-15T18:45:31;-2.70;1.00
9699;DHT22;10089;47.876;8.346;2024-01-15T18:48:31;-2.70;99.90
9699;DHT22;10089;47.876;8.346;2024-01-15T18:52:17;-2.80;99.90
9699;DHT22;10089;47.876;8.346;2024-01-15T18:56:13;-2.80;99.90
9699;DHT22;10089;47.876;8.346;2024-01-15T19:00:24;-2.80;99.90
9699;DHT22;10089;47.876;8.346;2024-01-15T19:08:17;-2.90;1.00
9699;DHT22;10089;47.876;8.346;2024-01-15T19:11:39;-2.90;99.90
9699;DHT22;10089;47.876;8.346;2024-01-15T19:18:48;-3.10;79.70
9699;DHT22;10089;47.876;8.346;2024-01-15T19:21:55;-3.10;1.00
9699;DHT22;10089;47.876;8.346;2024-01-15T19:25:12;-3.10;1.00
9699;DHT22;10089;47.876;8.346;2024-01-15T19:28:28;-3.10;59.90
9699;DHT22;10089;47.876;8.346;2024-01-15T19:36:25;-3.20;99.90
9699;DHT22;10089;47.876;8.346;2024-01-15T19:40:17;-3.20;1.00
9699;DHT22;10089;47.876;8.346;2024-01-15T19:44:00;-2.30;99.90
9699;DHT22;10089;47.876;8.346;2024-01-15T19:46:55;-3.30;1.00
9699;DHT22;10089;47.876;8.346;2024-01-15T19:50:34;-3.30;1.00
9699;DHT22;10089;47.876;8.346;2024-01-15T19:53:35;-3.40;1.00
9699;DHT22;10089;47.876;8.346;2024-01-15T19:57:38;-3.30;73.60
9699;DHT22;10089;47.876;8.346;2024-01-15T20:01:18;-3.40;28.80
9699;DHT22;10089;47.876;8.346;2024-01-15T20:05:02;-3.50;1.00
9699;DHT22;10089;47.876;8.346;2024-01-15T20:08:17;-3.50;99.90